Smithfield, RI

5:49 AM EST on January 19, 2017 (GMT -0500)
North Central State

Weather History for KSFZ - December, 2012

Change the Weather History Date:

Tuesday, December 18, 2012

  Actual Average Record
Temperature  
Mean Temperature 42 °F -  
Max Temperature 48 °F 38 °F 57 °F (1996)
Min Temperature 35 °F 24 °F 8 °F (2007)
Degree Days  
Heating Degree Days 24    
Moisture  
Dew Point 39 °F    
Average Humidity 88    
Maximum Humidity 93    
Minimum Humidity 81    
Precipitation  
Precipitation 0.65 in - - ()
Sea Level Pressure  
Sea Level Pressure 29.49 in    
Wind  
Wind Speed 8 mph (NW)    
Max Wind Speed 14 mph    
Max Gust Speed 17 mph    
Visibility 6 miles    
Events      
Averages and records for this station are not official NWS values.
T = Trace of Precipitation, MM = Missing Value Source: NWS Daily Summary

Daily Weather History Graph

Daily Weather History Graph

Search for Another Location

Airport or City:

Trip Planner

Search our weather history database for the weather conditions in past years. The results will help you decide how hot, cold, wet, or windy it might be!

Date:

Astronomy

Dec. 18, 2012 Rise Set
Actual Time 7:08 AM EST 4:16 PM EST
Civil Twilight 6:37 AM EST 4:48 PM EST
Nautical Twilight 6:02 AM EST 5:23 PM EST
Astronomical Twilight 5:28 AM EST 5:57 PM EST
Moon 10:42 AM EST (12/18) 10:45 PM EST (12/18)
Length of Visible Light 10h 11m
Length of Day
9h 07m
Waxing Crescent, 34% of the Moon is Illuminated
Dec 18
Waxing Crescent
Dec 20
First Quarter
Dec 28
Full
Jan 4
Last Quarter
Jan 11
New

Hourly Weather History & Observations

Time (EST) Temp. Windchill Dew Point Humidity Pressure Visibility Wind Dir Wind Speed Gust Speed Precip Events Conditions
12:15 AM 35.6 °F 28.6 °F 33.8 °F 93% 29.73 in 2.0 mi NNE 9.2 mph - 0.01 in   Overcast
12:55 AM 37.4 °F 29.3 °F 33.8 °F 87% 29.71 in 1.8 mi NNE 12.7 mph - 0.03 in   Overcast
1:55 AM 37.4 °F 30.8 °F 35.6 °F 93% 29.69 in 2.0 mi NNE 9.2 mph - 0.02 in   Overcast
2:15 AM 37.4 °F 30.3 °F 35.6 °F 93% 29.67 in 2.5 mi NNE 10.4 mph - 0.03 in   Overcast
2:35 AM 37.4 °F 30.3 °F 35.6 °F 93% 29.66 in 1.5 mi NNE 10.4 mph - 0.05 in   Overcast
2:55 AM 37.4 °F 30.3 °F 35.6 °F 93% 29.65 in 2.0 mi NNE 10.4 mph - 0.06 in   Overcast
3:15 AM 37.4 °F 30.8 °F 35.6 °F 93% 29.65 in 2.5 mi North 9.2 mph - 0.03 in   Overcast
3:35 AM 37.4 °F 31.4 °F 35.6 °F 93% 29.63 in 3.0 mi North 8.1 mph - 0.05 in   Overcast
3:55 AM 37.4 °F 30.3 °F 35.6 °F 93% 29.62 in 2.0 mi NNE 10.4 mph - 0.06 in   Overcast
4:15 AM 37.4 °F 31.4 °F 35.6 °F 93% 29.61 in 2.0 mi NNE 8.1 mph - 0.02 in   Overcast
4:35 AM 37.4 °F 29.8 °F 35.6 °F 93% 29.58 in 1.8 mi NNE 11.5 mph - 0.03 in   Overcast
4:55 AM 37.4 °F 29.3 °F 35.6 °F 93% 29.57 in 1.5 mi NNE 12.7 mph - 0.05 in   Overcast
5:35 AM 37.4 °F 31.4 °F 35.6 °F 93% 29.56 in 1.0 mi NNE 8.1 mph - 0.02 in   Overcast
5:55 AM 39.2 °F 35.0 °F 35.6 °F 87% 29.54 in 0.8 mi North 5.8 mph - 0.04 in   Overcast
6:15 AM 39.2 °F 35.0 °F 37.4 °F 93% 29.54 in 3.0 mi NNE 5.8 mph - 0.05 in   Overcast
6:35 AM 39.2 °F 35.9 °F 37.4 °F 93% 29.54 in 5.0 mi NNW 4.6 mph - 0.09 in   Overcast
7:15 AM 42.8 °F 37.0 °F 39.2 °F 87% 29.51 in 8.0 mi NE 10.4 mph - 0.28 in   Mostly Cloudy
7:55 AM 41.0 °F 37.1 °F 39.2 °F 93% 29.50 in 1.0 mi NNE 5.8 mph - 0.29 in   Overcast
8:15 AM 41.0 °F 37.1 °F 39.2 °F 93% 29.49 in 0.2 mi NNE 5.8 mph - N/A   Overcast
8:35 AM 42.8 °F 38.6 °F 41.0 °F 93% 29.49 in 3.0 mi NNE 6.9 mph - N/A   Overcast
8:55 AM 42.8 °F 39.3 °F 41.0 °F 93% 29.48 in 0.8 mi NNE 5.8 mph - N/A   Overcast
9:35 AM 44.6 °F 40.2 °F 41.0 °F 87% 29.47 in 0.5 mi North 8.1 mph - 0.01 in   Overcast
9:55 AM 44.6 °F 42.2 °F 42.8 °F 93% 29.47 in 1.2 mi North 4.6 mph - 0.01 in   Overcast
10:35 AM 44.6 °F 43.1 °F 42.8 °F 93% 29.45 in 0.8 mi NNW 3.5 mph - N/A   Overcast
10:55 AM 44.6 °F 43.1 °F 42.8 °F 93% 29.45 in 1.0 mi NNW 3.5 mph - N/A   Overcast
11:15 AM 44.6 °F 43.1 °F 42.8 °F 93% 29.45 in 1.0 mi NW 3.5 mph - N/A   Overcast
11:35 AM 44.6 °F 42.2 °F 42.8 °F 93% 29.44 in 1.0 mi West 4.6 mph - N/A   Overcast
12:15 PM 46.4 °F 44.3 °F 42.8 °F 87% 29.42 in 2.5 mi North 4.6 mph - N/A   Overcast
12:35 PM 46.4 °F 44.3 °F 42.8 °F 87% 29.42 in 1.8 mi West 4.6 mph - N/A   Overcast
12:55 PM 44.6 °F 43.1 °F 42.8 °F 93% 29.42 in 1.2 mi West 3.5 mph - N/A   Overcast
1:15 PM 46.4 °F 45.2 °F 42.8 °F 87% 29.42 in 0.8 mi West 3.5 mph - N/A   Overcast
2:15 PM 46.4 °F 42.4 °F 44.6 °F 93% 29.42 in 9.0 mi West 8.1 mph - N/A   Overcast
2:35 PM 46.4 °F 42.4 °F 44.6 °F 93% 29.42 in 10.0 mi West 8.1 mph - N/A   Overcast
2:55 PM 48.2 °F - 42.8 °F 82% 29.42 in 10.0 mi West 8.1 mph - N/A   Overcast
3:35 PM 46.4 °F 40.4 °F 42.8 °F 87% 29.42 in 10.0 mi West 13.8 mph 17.3 mph N/A   Overcast
3:55 PM 46.4 °F 42.4 °F 42.8 °F 87% 29.42 in 10.0 mi West 8.1 mph - N/A   Overcast
4:15 PM 46.4 °F 41.9 °F 42.8 °F 87% 29.42 in 10.0 mi West 9.2 mph - N/A   Overcast
4:35 PM 46.4 °F 41.9 °F 41.0 °F 81% 29.42 in 10.0 mi West 9.2 mph - N/A   Mostly Cloudy
4:55 PM 46.4 °F 44.3 °F 41.0 °F 81% 29.42 in 10.0 mi West 4.6 mph - N/A   Mostly Cloudy
5:15 PM 46.4 °F 42.9 °F 41.0 °F 81% 29.43 in 10.0 mi West 6.9 mph - N/A   Overcast
5:55 PM 44.6 °F 41.4 °F 41.0 °F 87% 29.43 in 10.0 mi West 5.8 mph - N/A   Overcast
6:15 PM 44.6 °F 42.2 °F 41.0 °F 87% 29.43 in 10.0 mi WSW 4.6 mph - N/A   Overcast
6:55 PM 44.6 °F 40.2 °F 39.2 °F 81% 29.44 in 10.0 mi West 8.1 mph - N/A   Overcast
7:15 PM 44.6 °F 40.7 °F 39.2 °F 81% 29.45 in 10.0 mi West 6.9 mph - N/A   Overcast
7:35 PM 44.6 °F 43.1 °F 39.2 °F 81% 29.45 in 10.0 mi West 3.5 mph - N/A   Overcast
7:55 PM 44.6 °F 42.2 °F 39.2 °F 81% 29.45 in 10.0 mi WNW 4.6 mph - N/A   Overcast
8:15 PM 44.6 °F 41.4 °F 39.2 °F 81% 29.45 in 10.0 mi West 5.8 mph - N/A   Overcast
8:35 PM 44.6 °F 41.4 °F 39.2 °F 81% 29.44 in 10.0 mi West 5.8 mph - N/A   Overcast
8:55 PM 44.6 °F 42.2 °F 39.2 °F 81% 29.45 in 10.0 mi West 4.6 mph - N/A   Overcast
9:15 PM 44.6 °F 41.4 °F 39.2 °F 81% 29.45 in 10.0 mi West 5.8 mph - N/A   Overcast
9:35 PM 44.6 °F 40.7 °F 39.2 °F 81% 29.44 in 10.0 mi WNW 6.9 mph - N/A   Overcast
9:55 PM 44.6 °F 40.7 °F 39.2 °F 81% 29.44 in 10.0 mi West 6.9 mph - N/A   Overcast
10:15 PM 44.6 °F 41.4 °F 39.2 °F 81% 29.45 in 10.0 mi West 5.8 mph - N/A   Overcast
10:35 PM 42.8 °F 38.0 °F 39.2 °F 87% 29.44 in 10.0 mi West 8.1 mph - N/A   Overcast
10:55 PM 42.8 °F 37.0 °F 39.2 °F 87% 29.45 in 10.0 mi West 10.4 mph - N/A   Overcast
11:35 PM 42.8 °F 37.0 °F 39.2 °F 87% 29.45 in 10.0 mi WNW 10.4 mph 17.3 mph N/A   Overcast
11:55 PM 42.8 °F 36.2 °F 39.2 °F 87% 29.44 in 10.0 mi WNW 12.7 mph - N/A   Overcast